Time;durP1;ratioP1;P1;durP2;ratioP2;P2;SDS_P1;SDS_P2;PMS_P1;PMS_P2;Temp;Humidity;BMP_temperature;BMP_pressure;BME280_temperature;BME280_humidity;BME280_pressure;Samples;Min_cycle;Max_cycle;Signal;HPM_P1;HPM_P2
2023/04/10 00:00:06;;;;;;;5.87;2.10;;;;;;;18.28;57.45;100869.78;5068318;28;20436;-60
2023/04/10 00:02:32;;;;;;;5.60;2.10;;;;;;;18.31;57.04;100871.06;5050535;28;20654;-59
2023/04/10 00:04:58;;;;;;;3.30;1.87;;;;;;;18.30;57.22;100869.38;5066901;28;20962;-59
2023/04/10 00:07:23;;;;;;;3.70;1.90;;;;;;;18.31;57.01;100869.03;5069107;28;20461;-59
2023/04/10 00:09:49;;;;;;;3.70;1.80;;;;;;;18.29;57.09;100870.59;5064565;28;20448;-59
2023/04/10 00:12:14;;;;;;;5.87;2.10;;;;;;;18.26;57.38;100869.28;5068708;28;20227;-59
2023/04/10 00:14:40;;;;;;;3.53;2.10;;;;;;;18.27;57.14;100868.09;5067026;28;20183;-59
2023/04/10 00:17:06;;;;;;;3.70;1.80;;;;;;;18.27;57.21;100870.13;5056862;28;20179;-59
2023/04/10 00:19:31;;;;;;;3.70;1.90;;;;;;;18.22;57.42;100862.66;5069431;28;20266;-59
2023/04/10 00:21:56;;;;;;;3.50;1.80;;;;;;;18.21;57.24;100860.19;5069296;28;20171;-59
2023/04/10 00:24:22;;;;;;;2.80;1.63;;;;;;;18.21;57.74;100854.47;5063787;28;20187;-59
2023/04/10 00:26:47;;;;;;;4.07;2.00;;;;;;;18.19;57.40;100846.25;5053124;28;20260;-59
2023/04/10 00:29:13;;;;;;;3.63;1.93;;;;;;;18.21;57.65;100843.03;5069155;28;20186;-59
2023/04/10 00:31:38;;;;;;;4.43;1.77;;;;;;;18.18;57.30;100849.47;5068415;28;20270;-59
2023/04/10 00:34:04;;;;;;;3.30;1.87;;;;;;;18.21;57.19;100846.69;5059482;28;20733;-60
2023/04/10 00:36:30;;;;;;;4.40;2.00;;;;;;;18.20;57.75;100850.75;5054557;28;20187;-59
2023/04/10 00:38:56;;;;;;;5.83;2.07;;;;;;;18.19;57.44;100849.09;5062296;28;20183;-59
2023/04/10 00:41:22;;;;;;;4.27;2.10;;;;;;;18.18;57.65;100858.03;5055832;28;20991;-59
2023/04/10 00:43:48;;;;;;;5.40;1.80;;;;;;;18.15;57.52;100853.03;5066904;28;20167;-59
2023/04/10 00:46:13;;;;;;;4.40;2.07;;;;;;;18.15;57.49;100859.59;5052382;28;21081;-59
2023/04/10 00:48:39;;;;;;;3.73;1.80;;;;;;;18.15;57.70;100853.88;5030046;28;20176;-59
2023/04/10 00:51:05;;;;;;;5.10;2.13;;;;;;;18.14;57.50;100851.38;5032372;28;20663;-59
2023/04/10 00:53:30;;;;;;;4.20;1.80;;;;;;;18.17;57.57;100854.34;5048924;28;20217;-59
2023/04/10 00:55:56;;;;;;;3.47;2.17;;;;;;;18.13;57.25;100853.44;5048803;28;20223;-59
2023/04/10 00:58:21;;;;;;;3.63;2.13;;;;;;;18.13;57.58;100850.56;5054630;28;20192;-59
2023/04/10 01:00:47;;;;;;;3.93;1.80;;;;;;;18.12;57.53;100854.59;5054941;28;20190;-59
2023/04/10 01:03:14;;;;;;;3.07;1.60;;;;;;;18.13;57.32;100861.16;5034837;28;20168;-59
2023/04/10 01:06:01;;;;;;;4.73;2.30;;;;;;;18.11;57.50;100858.66;5048489;28;20187;-59
2023/04/10 01:08:35;;;;;;;4.43;2.07;;;;;;;18.12;57.13;100868.06;5072732;28;20412;-59
2023/04/10 01:11:06;;;;;;;4.53;2.00;;;;;;;18.11;57.48;100867.22;5049010;28;20524;-59
2023/04/10 01:13:38;;;;;;;3.60;1.83;;;;;;;18.10;57.62;100857.00;5052894;28;20430;-59
2023/04/10 01:16:15;;;;;;;4.50;1.97;;;;;;;18.14;57.42;100869.38;5031048;28;20532;-59
2023/04/10 01:18:45;;;;;;;2.83;1.57;;;;;;;18.09;57.32;100872.50;5056806;28;20437;-59
2023/04/10 01:21:11;;;;;;;4.13;2.00;;;;;;;18.10;57.45;100873.31;5034262;28;20410;-59
2023/04/10 01:24:17;;;;;;;3.87;1.90;;;;;;;18.10;57.24;100864.72;5017858;28;20424;-59
2023/04/10 01:26:51;;;;;;;3.40;1.90;;;;;;;18.10;57.34;100870.44;5052838;28;20552;-59
2023/04/10 01:29:19;;;;;;;3.70;1.87;;;;;;;18.06;57.53;100870.34;5051592;28;20520;-59
2023/04/10 01:32:00;;;;;;;3.70;2.00;;;;;;;18.06;57.40;100861.78;5042252;28;20467;-59
2023/04/10 01:34:35;;;;;;;5.23;3.03;;;;;;;18.06;57.40;100864.63;5033077;28;20539;-59
2023/04/10 01:37:07;;;;;;;5.33;2.43;;;;;;;18.06;57.29;100876.06;5035626;28;20438;-59
2023/04/10 01:39:35;;;;;;;5.33;2.23;;;;;;;18.04;57.40;100864.19;5069922;28;20455;-59
2023/04/10 01:42:01;;;;;;;4.13;2.30;;;;;;;18.05;57.52;100868.69;5051928;28;20409;-59
2023/04/10 01:44:28;;;;;;;2.90;1.60;;;;;;;18.05;57.16;100874.41;5052773;28;20835;-59
2023/04/10 01:46:54;;;;;;;3.17;1.57;;;;;;;18.05;57.48;100865.84;5015765;28;20421;-59
2023/04/10 01:49:20;;;;;;;4.80;1.93;;;;;;;18.03;57.32;100873.94;5014077;28;20450;-59
2023/04/10 01:51:46;;;;;;;3.00;1.80;;;;;;;18.03;57.22;100865.38;5015150;28;20451;-58
2023/04/10 01:54:11;;;;;;;3.90;2.10;;;;;;;18.03;57.49;100861.69;5033223;28;20160;-59
2023/04/10 01:56:37;;;;;;;3.47;1.70;;;;;;;18.03;57.51;100871.09;5050616;28;20465;-59
2023/04/10 01:59:02;;;;;;;4.13;1.90;;;;;;;18.03;57.56;100867.41;5055915;28;20195;-59
2023/04/10 02:01:28;;;;;;;3.30;2.20;;;;;;;18.03;57.36;100856.81;5033609;28;20168;-59
2023/04/10 02:03:54;;;;;;;3.90;1.87;;;;;;;18.01;57.57;100856.31;5053754;28;20190;-59
2023/04/10 02:06:29;;;;;;;4.53;2.20;;;;;;;18.01;57.23;100850.59;5081719;28;20843;-59
2023/04/10 02:08:56;;;;;;;3.27;1.77;;;;;;;18.01;57.28;100844.91;5070023;28;20198;-59
2023/04/10 02:11:33;;;;;;;3.80;1.60;;;;;;;18.01;57.30;100850.59;5053000;28;20453;-59
2023/04/10 02:13:59;;;;;;;3.20;1.63;;;;;;;18.00;57.55;100848.09;5068797;28;20544;-59
2023/04/10 02:16:26;;;;;;;3.93;1.73;;;;;;;17.99;57.59;100846.44;5071137;28;20428;-59
2023/04/10 02:18:51;;;;;;;3.50;1.67;;;;;;;18.00;57.29;100851.81;5050965;28;20501;-59
2023/04/10 02:21:17;;;;;;;3.43;2.20;;;;;;;18.00;57.26;100851.81;5052877;28;20771;-59
2023/04/10 02:23:42;;;;;;;2.83;1.90;;;;;;;17.98;57.68;100857.06;5071094;28;20171;-59
2023/04/10 02:26:08;;;;;;;3.93;2.80;;;;;;;17.98;57.62;100857.06;5049500;28;20619;-59
2023/04/10 02:28:36;;;;;;;4.07;2.03;;;;;;;17.99;57.47;100852.16;5071219;28;20182;-59
2023/04/10 02:31:01;;;;;;;5.17;2.57;;;;;;;17.97;57.33;100855.38;5052799;28;21029;-58
2023/04/10 02:33:26;;;;;;;4.10;2.20;;;;;;;17.97;57.40;100855.38;5069863;28;20433;-59
2023/04/10 02:35:52;;;;;;;3.40;2.10;;;;;;;17.97;57.61;100855.38;5066420;28;20187;-59
2023/04/10 02:38:17;;;;;;;4.27;1.70;;;;;;;17.98;57.38;100850.50;5052288;28;20218;-59
2023/04/10 02:40:43;;;;;;;3.83;2.20;;;;;;;17.96;57.47;100845.16;5050761;28;20258;-59
2023/04/10 02:43:08;;;;;;;4.20;2.10;;;;;;;17.96;57.38;100850.06;5050833;28;20160;-59
2023/04/10 02:45:34;;;;;;;4.23;2.20;;;;;;;17.97;57.38;100843.16;5057668;28;20218;-59
2023/04/10 02:47:59;;;;;;;3.27;1.70;;;;;;;17.96;57.43;100839.44;5071081;28;20175;-59
2023/04/10 02:50:28;;;;;;;3.70;2.03;;;;;;;17.95;57.44;100832.06;5072079;28;20191;-59
2023/04/10 02:52:54;;;;;;;3.90;2.10;;;;;;;17.94;57.62;100836.13;5053933;28;20214;-59
2023/04/10 02:55:31;;;;;;;3.80;1.90;;;;;;;17.92;57.39;100824.25;5051210;28;21211;-59
2023/04/10 02:57:57;;;;;;;3.60;1.73;;;;;;;17.95;57.35;100829.22;5053385;28;20304;-59
2023/04/10 03:00:22;;;;;;;3.30;1.80;;;;;;;17.93;57.77;100825.91;5050575;28;20507;-59
2023/04/10 03:02:48;;;;;;;3.53;2.07;;;;;;;17.92;57.44;100817.69;5050314;28;20184;-59
2023/04/10 03:05:13;;;;;;;4.50;2.13;;;;;;;17.92;57.17;100827.09;5070086;28;20170;-59
2023/04/10 03:07:39;;;;;;;2.87;1.57;;;;;;;17.91;57.34;100819.72;5066485;28;20264;-59
2023/04/10 03:10:05;;;;;;;5.20;2.00;;;;;;;17.91;57.86;100808.28;5070003;28;20878;-59
2023/04/10 03:12:30;;;;;;;4.07;1.97;;;;;;;17.90;57.41;100806.63;5067942;28;20242;-59
2023/04/10 03:14:56;;;;;;;4.30;2.20;;;;;;;17.91;57.51;100808.28;5069957;28;20495;-59
2023/04/10 03:17:21;;;;;;;3.90;1.60;;;;;;;17.90;57.69;100800.09;5069844;28;20177;-59
2023/04/10 03:19:47;;;;;;;4.60;2.00;;;;;;;17.89;57.17;100793.53;5058152;28;20187;-59
2023/04/10 03:22:12;;;;;;;3.67;1.83;;;;;;;17.90;57.15;100800.09;5049238;28;20167;-59
2023/04/10 03:24:38;;;;;;;3.70;2.10;;;;;;;17.89;57.79;100787.84;5057133;28;20167;-59
2023/04/10 03:27:04;;;;;;;3.77;2.20;;;;;;;17.89;57.71;100790.69;5067883;28;20183;-59
2023/04/10 03:29:29;;;;;;;2.33;1.43;;;;;;;17.88;57.60;100782.47;5060489;28;20449;-59
2023/04/10 03:31:56;;;;;;;3.20;2.00;;;;;;;17.89;57.12;100781.28;5069350;28;20686;-59
2023/04/10 03:34:21;;;;;;;3.80;1.80;;;;;;;17.88;57.63;100773.91;5066184;28;20601;-59
2023/04/10 03:36:47;;;;;;;3.97;2.00;;;;;;;17.88;57.60;100771.91;5069758;28;20433;-59
2023/04/10 03:39:12;;;;;;;4.90;2.27;;;;;;;17.87;57.40;100775.97;5069597;28;20252;-59
2023/04/10 03:41:38;;;;;;;4.87;2.17;;;;;;;17.86;57.66;100771.41;5070011;28;20201;-59
2023/04/10 03:44:03;;;;;;;3.13;1.87;;;;;;;17.86;57.49;100768.56;5054939;28;20187;-59
2023/04/10 03:46:29;;;;;;;3.77;1.97;;;;;;;17.87;57.35;100773.09;5049682;28;20176;-58
2023/04/10 03:48:54;;;;;;;3.30;1.70;;;;;;;17.87;57.48;100772.25;5053246;28;20214;-59
2023/04/10 03:51:20;;;;;;;4.20;2.40;;;;;;;17.86;57.24;100777.13;5068601;28;20191;-59
2023/04/10 03:53:46;;;;;;;3.90;1.90;;;;;;;17.85;57.25;100778.31;5066464;28;20510;-58
2023/04/10 03:56:11;;;;;;;3.80;2.10;;;;;;;17.85;57.48;100781.19;5069502;28;20670;-59
2023/04/10 03:58:36;;;;;;;3.77;1.87;;;;;;;17.87;57.17;100777.97;5069468;28;20151;-58
2023/04/10 04:01:03;;;;;;;3.10;1.63;;;;;;;17.86;57.42;100770.59;5066960;28;20242;-58
2023/04/10 04:03:29;;;;;;;4.10;2.40;;;;;;;17.85;57.66;100769.75;5038584;28;20179;-59
2023/04/10 04:05:55;;;;;;;3.27;1.43;;;;;;;17.85;57.23;100775.47;5051414;28;20421;-59
2023/04/10 04:08:20;;;;;;;2.83;1.80;;;;;;;17.84;57.42;100765.25;5069629;28;20243;-59
2023/04/10 04:10:45;;;;;;;3.80;1.73;;;;;;;17.84;57.77;100762.41;5063432;28;20720;-59
2023/04/10 04:13:11;;;;;;;3.33;2.20;;;;;;;17.84;57.62;100768.09;5049557;28;20569;-59
2023/04/10 04:15:36;;;;;;;4.20;1.97;;;;;;;17.84;57.27;100761.56;5033095;28;20186;-59
2023/04/10 04:18:02;;;;;;;3.13;2.07;;;;;;;17.83;57.62;100766.44;5043282;28;20691;-59
2023/04/10 04:20:27;;;;;;;2.97;1.60;;;;;;;17.84;57.36;100773.81;5069618;28;20641;-59
2023/04/10 04:22:53;;;;;;;3.07;1.87;;;;;;;17.83;57.48;100766.44;5065131;28;20670;-59
2023/04/10 04:25:19;;;;;;;3.50;2.00;;;;;;;17.81;57.54;100757.41;5051187;28;20171;-59
2023/04/10 04:27:44;;;;;;;4.23;2.17;;;;;;;17.81;57.46;100757.41;5068822;28;20229;-59
2023/04/10 04:30:10;;;;;;;3.13;1.77;;;;;;;17.81;57.45;100763.09;5064228;28;20995;-59
2023/04/10 04:32:36;;;;;;;3.17;1.90;;;;;;;17.80;57.75;100772.88;5031506;28;20590;-59
2023/04/10 04:35:01;;;;;;;2.77;1.70;;;;;;;17.79;57.69;100771.22;5070723;28;20171;-59
2023/04/10 04:37:27;;;;;;;3.53;2.17;;;;;;;17.80;57.62;100767.16;5062421;28;20191;-59
2023/04/10 04:39:52;;;;;;;3.27;1.90;;;;;;;17.78;57.41;100775.28;5051654;28;20156;-59
2023/04/10 04:42:17;;;;;;;2.40;1.63;;;;;;;17.80;57.48;100775.75;5034694;28;20164;-59
2023/04/10 04:44:43;;;;;;;2.83;1.83;;;;;;;17.79;57.69;100782.66;5070018;28;20201;-59
2023/04/10 04:47:08;;;;;;;3.23;1.70;;;;;;;17.80;57.50;100787.16;5054653;28;20187;-58
2023/04/10 04:49:34;;;;;;;4.57;1.90;;;;;;;17.80;57.26;100784.31;5063231;28;20191;-59
2023/04/10 04:51:59;;;;;;;3.60;1.60;;;;;;;17.78;57.40;100786.72;5051126;28;20195;-59
2023/04/10 04:54:25;;;;;;;3.87;1.90;;;;;;;17.79;57.32;100781.81;5050592;28;20175;-58
2023/04/10 04:56:50;;;;;;;3.50;2.00;;;;;;;17.79;57.43;100781.81;5053078;28;20231;-58
2023/04/10 04:59:15;;;;;;;3.03;1.60;;;;;;;17.78;57.83;100792.41;5052721;28;20190;-59
2023/04/10 05:01:41;;;;;;;2.70;1.63;;;;;;;17.78;57.63;100798.13;5055587;28;20179;-58
2023/04/10 05:04:06;;;;;;;3.70;2.30;;;;;;;17.81;57.33;100802.28;5037894;28;20274;-59
2023/04/10 05:06:32;;;;;;;2.60;1.67;;;;;;;17.78;57.74;100803.84;5072354;28;20257;-59
2023/04/10 05:08:57;;;;;;;4.03;2.20;;;;;;;17.76;57.48;100800.50;5072745;28;20182;-59
2023/04/10 05:11:23;;;;;;;2.97;1.90;;;;;;;17.76;57.41;100806.22;5058324;28;20678;-59
2023/04/10 05:13:48;;;;;;;4.43;2.10;;;;;;;17.76;57.27;100803.34;5052536;28;20533;-59
2023/04/10 05:16:13;;;;;;;3.10;1.80;;;;;;;17.75;57.49;100798.84;5057654;28;20189;-59
2023/04/10 05:18:40;;;;;;;3.17;1.90;;;;;;;17.76;57.45;100806.22;5054316;28;20166;-59
2023/04/10 05:21:05;;;;;;;2.47;1.60;;;;;;;17.75;57.77;100796.00;5071786;28;20191;-59
2023/04/10 05:23:31;;;;;;;2.93;1.90;;;;;;;17.75;57.37;100798.03;5055236;28;20445;-59
2023/04/10 05:25:56;;;;;;;4.80;2.27;;;;;;;17.75;57.35;100798.03;5052581;28;20160;-59
2023/04/10 05:28:22;;;;;;;3.20;1.83;;;;;;;17.74;57.09;100793.50;5052153;28;20172;-59
2023/04/10 05:30:47;;;;;;;4.80;1.90;;;;;;;17.75;57.63;100783.75;5065985;28;20659;-59
2023/04/10 05:33:13;;;;;;;3.60;1.70;;;;;;;17.74;57.65;100791.47;5071197;28;20195;-59
2023/04/10 05:35:38;;;;;;;3.83;1.83;;;;;;;17.74;57.71;100785.75;5072145;28;20213;-59
2023/04/10 05:38:04;;;;;;;3.00;1.87;;;;;;;17.74;57.44;100787.78;5058075;28;20191;-59
2023/04/10 05:40:29;;;;;;;3.20;1.87;;;;;;;17.73;57.54;100801.25;5052082;28;20179;-59
2023/04/10 05:42:54;;;;;;;3.50;2.30;;;;;;;17.75;57.47;100803.75;5052023;28;20160;-59
2023/04/10 05:45:20;;;;;;;3.50;2.20;;;;;;;17.74;57.32;100802.91;5050915;28;20168;-60
2023/04/10 05:47:45;;;;;;;3.07;1.93;;;;;;;17.72;57.35;100805.31;5054716;28;20190;-59
2023/04/10 05:50:11;;;;;;;3.07;1.90;;;;;;;17.73;57.40;100804.09;5051821;28;20241;-59
2023/04/10 05:52:36;;;;;;;3.40;2.00;;;;;;;17.73;57.86;100806.13;5054224;28;20717;-59
2023/04/10 05:55:02;;;;;;;2.57;1.63;;;;;;;17.73;57.37;100806.97;5033595;28;20180;-59
2023/04/10 05:57:28;;;;;;;3.17;1.50;;;;;;;17.72;57.17;100815.88;5053013;28;20243;-59
2023/04/10 05:59:53;;;;;;;3.90;1.97;;;;;;;17.72;57.32;100819.56;5034481;28;20620;-59
2023/04/10 06:02:20;;;;;;;3.30;2.10;;;;;;;17.72;57.43;100818.75;5040643;28;20425;-59
2023/04/10 06:04:46;;;;;;;3.60;1.97;;;;;;;17.71;57.17;100815.03;5038899;28;20218;-59
2023/04/10 06:07:11;;;;;;;4.17;1.83;;;;;;;17.69;57.28;100797.44;5071382;28;20477;-59
2023/04/10 06:09:36;;;;;;;3.10;1.60;;;;;;;17.73;57.05;100806.97;5052887;28;20171;-59
2023/04/10 06:12:02;;;;;;;2.87;1.97;;;;;;;17.71;57.28;100797.91;5051757;28;20215;-59
2023/04/10 06:14:27;;;;;;;2.43;1.80;;;;;;;17.71;57.33;100805.66;5054704;28;20187;-59
2023/04/10 06:16:53;;;;;;;2.83;1.60;;;;;;;17.70;57.35;100807.66;5050668;28;20210;-59
2023/04/10 06:19:18;;;;;;;4.00;2.20;;;;;;;17.71;57.25;100808.50;5052435;28;20195;-59
2023/04/10 06:21:44;;;;;;;3.37;1.90;;;;;;;17.70;57.50;100801.97;5050318;28;20179;-59
2023/04/10 06:24:10;;;;;;;3.03;1.90;;;;;;;17.71;57.52;100799.94;5049742;28;20172;-59
2023/04/10 06:26:36;;;;;;;3.17;1.80;;;;;;;17.71;56.90;100809.31;5035094;28;20207;-59
2023/04/10 06:29:01;;;;;;;3.70;2.10;;;;;;;17.71;57.20;100817.91;5033994;28;20981;-59
2023/04/10 06:31:27;;;;;;;2.93;1.80;;;;;;;17.70;57.40;100807.66;5060195;28;20543;-60
2023/04/10 06:33:52;;;;;;;2.53;1.50;;;;;;;17.70;57.23;100807.66;5057834;28;20514;-59
2023/04/10 06:36:18;;;;;;;2.80;1.90;;;;;;;17.71;57.29;100808.50;5058148;28;20178;-60
2023/04/10 06:38:43;;;;;;;3.27;1.90;;;;;;;17.70;57.45;100804.00;5071654;28;20164;-60
2023/04/10 06:41:09;;;;;;;3.10;1.97;;;;;;;17.69;57.67;100800.31;5071270;28;20190;-59
2023/04/10 06:43:34;;;;;;;2.43;1.57;;;;;;;17.68;57.33;100800.66;5066073;28;20179;-59
2023/04/10 06:46:02;;;;;;;2.53;1.77;;;;;;;17.69;57.35;100788.88;5062764;28;20214;-60
2023/04/10 06:48:27;;;;;;;3.27;1.83;;;;;;;17.69;57.22;100794.59;5051800;28;20156;-59
2023/04/10 06:50:53;;;;;;;3.70;1.73;;;;;;;17.70;57.35;100801.16;5051576;28;20771;-59
2023/04/10 06:53:18;;;;;;;3.40;1.90;;;;;;;17.70;57.31;100801.97;5054011;28;20671;-59
2023/04/10 06:55:44;;;;;;;3.43;1.90;;;;;;;17.70;57.12;100795.44;5052482;28;20180;-59
2023/04/10 06:58:09;;;;;;;4.47;2.10;;;;;;;17.69;57.47;100788.88;5071177;28;20265;-59
2023/04/10 07:00:35;;;;;;;3.30;1.60;;;;;;;17.68;57.50;100795.78;5053901;28;20238;-59
2023/04/10 07:03:00;;;;;;;3.27;2.03;;;;;;;17.68;56.95;100787.22;5067505;28;20185;-59
2023/04/10 07:05:26;;;;;;;4.03;2.70;;;;;;;17.67;57.26;100791.28;5082413;28;20162;-59
2023/04/10 07:07:52;;;;;;;3.60;2.27;;;;;;;17.68;57.13;100794.94;5061218;28;20203;-59
2023/04/10 07:10:17;;;;;;;3.13;2.00;;;;;;;17.68;57.21;100792.94;5032039;28;20622;-60
2023/04/10 07:12:43;;;;;;;3.37;1.80;;;;;;;17.67;57.26;100791.28;5034350;28;20194;-60
2023/04/10 07:15:08;;;;;;;3.23;1.83;;;;;;;17.67;57.29;100790.44;5049961;28;20171;-60
2023/04/10 07:17:34;;;;;;;3.20;2.00;;;;;;;17.67;57.11;100797.00;5050046;28;20166;-60
2023/04/10 07:19:59;;;;;;;3.30;1.80;;;;;;;17.66;56.93;100788.78;5052443;28;20195;-60
2023/04/10 07:22:26;;;;;;;4.17;2.23;;;;;;;17.67;57.29;100790.44;5032504;28;20242;-60
2023/04/10 07:24:51;;;;;;;2.40;1.50;;;;;;;17.66;57.34;100795.31;5060890;28;20179;-59
2023/04/10 07:27:17;;;;;;;3.30;2.30;;;;;;;17.65;57.42;100793.66;5052945;28;20413;-59
2023/04/10 07:29:42;;;;;;;3.13;1.93;;;;;;;17.65;57.40;100799.38;5035976;28;20203;-62
2023/04/10 07:32:07;;;;;;;3.00;1.93;;;;;;;17.67;57.12;100797.00;5068938;28;20218;-59
2023/04/10 07:34:33;;;;;;;3.63;2.00;;;;;;;17.66;57.40;100800.22;5070129;28;20171;-59
2023/04/10 07:36:58;;;;;;;2.97;1.80;;;;;;;17.66;56.96;100798.16;5067607;28;20191;-59
2023/04/10 07:39:24;;;;;;;2.87;1.70;;;;;;;17.66;57.05;100809.59;5070094;28;20193;-59
2023/04/10 07:41:51;;;;;;;2.20;1.70;;;;;;;17.66;57.19;100801.03;5069353;28;20167;-60
2023/04/10 07:44:17;;;;;;;2.87;1.90;;;;;;;17.66;57.16;100800.22;5049307;28;20175;-59
2023/04/10 07:46:43;;;;;;;3.10;2.00;;;;;;;17.64;57.16;100797.72;5067150;28;20486;-60
2023/04/10 07:49:08;;;;;;;2.90;1.77;;;;;;;17.65;57.29;100796.50;5068149;28;20353;-59
2023/04/10 07:51:33;;;;;;;3.30;2.17;;;;;;;17.64;57.01;100800.56;5051679;28;20217;-59
2023/04/10 07:53:59;;;;;;;3.07;1.80;;;;;;;17.65;57.42;100799.38;5049120;28;20233;-60
2023/04/10 07:56:24;;;;;;;3.23;1.97;;;;;;;17.64;57.25;100788.28;5052297;28;20223;-59
2023/04/10 07:58:50;;;;;;;2.90;2.00;;;;;;;17.62;57.41;100785.84;5032250;28;20521;-59
2023/04/10 08:01:15;;;;;;;3.53;2.00;;;;;;;17.63;57.41;100786.66;5051777;28;20188;-60
2023/04/10 08:03:44;;;;;;;3.63;2.00;;;;;;;17.64;57.19;100791.16;5063959;28;20175;-60
2023/04/10 08:06:10;;;;;;;3.60;2.40;;;;;;;17.64;57.64;100788.28;5078747;28;20187;-60
2023/04/10 08:08:39;;;;;;;4.53;2.27;;;;;;;17.64;57.25;100783.44;5062343;28;20438;-59
2023/04/10 08:11:25;;;;;;;3.90;1.87;;;;;;;17.64;57.22;100789.13;5070426;28;20467;-60
2023/04/10 08:13:51;;;;;;;2.67;1.77;;;;;;;17.64;56.98;100792.00;5055687;28;21103;-60
2023/04/10 08:16:22;;;;;;;2.90;1.60;;;;;;;17.63;57.07;100786.66;5057221;28;20436;-59
2023/04/10 08:18:48;;;;;;;3.10;1.90;;;;;;;17.63;56.88;100796.06;5059068;28;20790;-60
2023/04/10 08:21:13;;;;;;;4.20;2.37;;;;;;;17.63;57.25;100798.06;5043152;28;20414;-60
2023/04/10 08:23:39;;;;;;;2.80;1.63;;;;;;;17.62;57.40;100797.25;5069033;28;20316;-59
2023/04/10 08:26:05;;;;;;;3.10;1.97;;;;;;;17.63;57.46;100790.34;5057143;28;20180;-60
2023/04/10 08:28:31;;;;;;;3.47;2.40;;;;;;;17.62;57.19;100797.25;5059543;28;20206;-59
2023/04/10 08:30:56;;;;;;;2.83;2.00;;;;;;;17.61;57.58;100792.72;5065790;28;20187;-61
2023/04/10 08:33:22;;;;;;;3.50;1.80;;;;;;;17.60;57.10;100793.91;5078983;28;20488;-61
2023/04/10 08:35:48;;;;;;;3.83;1.97;;;;;;;17.60;57.38;100793.91;5059279;28;20190;-61
2023/04/10 08:38:13;;;;;;;3.87;1.80;;;;;;;17.58;57.21;100793.44;5079974;28;20197;-61
2023/04/10 08:40:39;;;;;;;3.00;1.93;;;;;;;17.59;57.74;100789.41;5079385;28;20182;-61
2023/04/10 08:43:04;;;;;;;3.23;1.80;;;;;;;17.61;57.34;100797.59;5078643;28;20153;-61
2023/04/10 08:45:30;;;;;;;3.67;2.03;;;;;;;17.61;57.17;100791.91;5048547;28;20552;-61
2023/04/10 08:47:56;;;;;;;4.00;1.93;;;;;;;17.60;57.00;100793.91;5057944;28;20178;-61
2023/04/10 08:50:21;;;;;;;3.53;2.03;;;;;;;17.60;57.59;100785.34;5075842;28;20175;-61
2023/04/10 08:52:47;;;;;;;3.30;1.60;;;;;;;17.61;57.35;100784.16;5053971;28;20461;-61
2023/04/10 08:55:13;;;;;;;2.63;1.70;;;;;;;17.59;57.35;100772.28;5039935;28;20176;-61
2023/04/10 08:57:39;;;;;;;2.60;1.80;;;;;;;17.59;57.41;100772.28;5066833;28;20227;-61
2023/04/10 09:00:05;;;;;;;3.00;2.00;;;;;;;17.59;57.77;100771.44;5058399;28;20901;-61
2023/04/10 09:02:31;;;;;;;3.37;2.33;;;;;;;17.59;57.62;100771.44;5040749;28;20175;-61
2023/04/10 09:04:57;;;;;;;2.83;1.90;;;;;;;17.58;57.54;100770.63;5074843;28;20430;-61
2023/04/10 09:07:23;;;;;;;3.50;1.63;;;;;;;17.59;57.26;100762.88;5059513;28;20545;-61
2023/04/10 09:09:48;;;;;;;3.30;2.17;;;;;;;17.58;57.18;100756.34;5074269;28;20434;-61
2023/04/10 09:12:14;;;;;;;3.53;1.80;;;;;;;17.58;57.52;100756.34;5077666;28;20194;-61
2023/04/10 09:14:40;;;;;;;3.47;2.10;;;;;;;17.58;57.41;100755.50;5059485;28;20156;-61
2023/04/10 09:17:13;;;;;;;3.20;2.13;;;;;;;17.59;57.10;100752.28;5079263;28;20421;-61
2023/04/10 09:19:39;;;;;;;3.87;2.13;;;;;;;17.58;57.37;100756.34;5075757;28;20191;-59
2023/04/10 09:22:05;;;;;;;3.40;1.93;;;;;;;17.58;57.47;100747.78;5081162;28;20429;-58
2023/04/10 09:24:30;;;;;;;4.10;2.40;;;;;;;17.57;57.14;100742.44;5078366;28;20233;-58
2023/04/10 09:26:55;;;;;;;3.00;1.83;;;;;;;17.56;57.71;100738.72;5063682;28;20183;-59
2023/04/10 09:29:21;;;;;;;2.73;1.87;;;;;;;17.58;57.45;100739.22;5080853;28;20164;-58
2023/04/10 09:31:46;;;;;;;2.80;1.67;;;;;;;17.58;57.21;100741.22;5080359;28;20195;-58
2023/04/10 09:34:16;;;;;;;2.97;1.70;;;;;;;17.58;57.33;100732.66;5071585;28;20175;-58
2023/04/10 09:36:43;;;;;;;3.10;1.73;;;;;;;17.57;57.66;100729.00;5064008;28;20289;-59
2023/04/10 09:39:09;;;;;;;2.60;1.83;;;;;;;17.57;57.13;100734.69;5072700;28;20537;-58
2023/04/10 09:41:40;;;;;;;3.30;1.83;;;;;;;17.57;57.57;100728.16;5056286;28;20417;-59
2023/04/10 09:44:10;;;;;;;3.50;2.20;;;;;;;17.57;57.57;100725.28;5054646;28;20456;-59
2023/04/10 09:46:36;;;;;;;3.00;1.87;;;;;;;17.57;57.17;100729.00;5059551;28;20693;-62
2023/04/10 09:49:04;;;;;;;3.17;1.93;;;;;;;17.57;57.37;100717.56;5070044;28;20442;-64
2023/04/10 09:51:33;;;;;;;3.47;2.43;;;;;;;17.58;57.39;100712.69;5068850;28;20198;-63
2023/04/10 09:53:59;;;;;;;6.50;3.83;;;;;;;17.48;53.01;100713.19;5073687;28;20422;-63
2023/04/10 09:56:26;;;;;;;6.80;3.70;;;;;;;17.43;53.15;100711.44;5071074;28;20464;-61
2023/04/10 09:58:52;;;;;;;5.80;4.00;;;;;;;17.33;47.75;100703.38;5045698;28;20425;-61
2023/04/10 10:01:19;;;;;;;6.17;4.10;;;;;;;17.33;49.72;100691.97;5061662;28;20441;-61
2023/04/10 10:03:44;;;;;;;8.70;4.00;;;;;;;17.27;50.63;100684.84;5060844;28;20437;-60
2023/04/10 10:06:10;;;;;;;8.70;4.50;;;;;;;17.22;44.03;100687.13;5088179;28;20539;-61
2023/04/10 10:08:36;;;;;;;12.07;5.37;;;;;;;17.11;43.20;100686.81;5088341;28;20172;-60
2023/04/10 10:11:01;;;;;;;10.33;4.67;;;;;;;17.18;43.63;100684.19;5048537;28;20183;-60
2023/04/10 10:13:29;;;;;;;5.87;4.23;;;;;;;17.24;43.47;100676.16;5058968;28;20758;-62
2023/04/10 10:16:02;;;;;;;5.67;4.40;;;;;;;17.30;43.93;100675.56;5039524;28;20186;-61
2023/04/10 10:18:30;;;;;;;6.17;4.20;;;;;;;17.33;45.58;100677.69;5063834;28;20429;-64
2023/04/10 10:20:55;;;;;;;5.40;3.80;;;;;;;17.33;45.95;100666.28;5066082;28;20779;-63
2023/04/10 10:23:21;;;;;;;5.20;3.90;;;;;;;17.34;46.57;100667.94;5044470;28;20469;-62
2023/04/10 10:25:47;;;;;;;10.33;4.93;;;;;;;17.35;45.86;100663.88;5034518;28;20859;-61
2023/04/10 10:28:13;;;;;;;20.87;6.90;;;;;;;17.35;47.42;100663.88;5032118;28;20212;-63
2023/04/10 10:30:39;;;;;;;21.30;5.13;;;;;;;17.34;47.41;100656.50;5032685;28;20418;-62
2023/04/10 10:33:06;;;;;;;8.33;4.53;;;;;;;17.36;46.98;100659.00;5047508;28;20550;-61
2023/04/10 10:35:31;;;;;;;11.33;5.60;;;;;;;17.36;46.93;100650.44;5068547;28;20515;-61
2023/04/10 10:38:00;;;;;;;9.70;5.37;;;;;;;17.34;47.54;100645.09;5068213;28;20421;-61
2023/04/10 10:40:51;;;;;;;12.00;5.10;;;;;;;17.41;49.96;100642.47;5044016;28;20194;-63
2023/04/10 10:43:24;;;;;;;15.33;6.40;;;;;;;17.57;48.96;100642.50;5037094;28;20472;-63
2023/04/10 10:45:51;;;;;;;19.13;5.67;;;;;;;17.57;49.23;100631.94;5023700;28;21031;-64
2023/04/10 10:48:20;;;;;;;18.93;6.37;;;;;;;17.56;49.66;100630.25;5044582;28;20492;-63
2023/04/10 10:50:52;;;;;;;14.03;6.10;;;;;;;17.83;48.58;100634.22;5058680;28;20432;-63
2023/04/10 10:53:37;;;;;;;19.13;6.47;;;;;;;18.12;48.16;100628.88;5058619;28;20919;-63
2023/04/10 10:56:26;;;;;;;15.07;5.27;;;;;;;18.17;47.56;100620.00;5057837;28;20429;-64
2023/04/10 10:58:56;;;;;;;22.63;7.77;;;;;;;18.34;46.57;100622.53;5056991;28;20968;-63
2023/04/10 11:01:21;;;;;;;16.30;6.50;;;;;;;18.48;46.39;100617.16;5050976;28;20438;-63
2023/04/10 11:03:47;;;;;;;22.77;7.00;;;;;;;18.64;46.15;100615.06;5063619;28;20472;-66
2023/04/10 11:06:18;;;;;;;19.23;6.73;;;;;;;18.83;45.47;100617.94;5050803;28;20183;-62
2023/04/10 11:08:46;;;;;;;29.53;7.50;;;;;;;18.92;45.34;100607.09;5066265;28;20768;-66
2023/04/10 11:11:19;;;;;;;24.37;7.90;;;;;;;18.97;45.26;100608.84;5044624;28;20449;-64
2023/04/10 11:13:56;;;;;;;21.00;8.10;;;;;;;18.95;45.54;100603.47;5074545;28;20421;-63
2023/04/10 11:16:45;;;;;;;22.73;6.50;;;;;;;18.92;46.21;100598.50;5057029;28;20528;-65
2023/04/10 11:19:15;;;;;;;54.13;10.30;;;;;;;19.04;48.33;100595.50;5068289;28;20932;-64
2023/04/10 11:22:04;;;;;;;60.33;9.97;;;;;;;18.91;47.08;100596.03;5041196;28;20768;-67